Erie, Pennsylvania
Current Conditions -  °F | °C
As of 6:09 PM on Wednesday 22 Oct 2014 (Local Time) from KERI Reporting Station
Scattered Clouds Scattered Clouds  
Wind Chill: 46°   Ceiling: Unl
Heat Index: 48°   Visibility: 10mi
Dew Point: 39°   Wind: 5mph
Humidity: 71%   Direction: 60°ENE
Pressure: 30.22"   Gusts: NA
Location:  42.13°N, 80.08°W
Report Text: KERI 222209Z 06004KT 10SM FEW022 SCT026 09/04 A3022 RMK AO2
Loading
Personal Weather Stations






























Interactive Weather Map
Tropical Storm Tracking
New forecast layout! Learn more

10-Day Weather Forecast

Advertisements
Track Severe Weather on mobile